Time;durP1;ratioP1;P1;durP2;ratioP2;P2;SDS_P1;SDS_P2;PMS_P1;PMS_P2;Temp;Humidity;BMP_temperature;BMP_pressure;BME280_temperature;BME280_humidity;BME280_pressure;Samples;Min_cycle;Max_cycle;Signal;HPM_P1;HPM_P2
2023/07/20 00:01:50;;;;;;;2.20;1.73;;;;;;;25.37;57.01;97214.97;5092229;28;20192;-28
2023/07/20 00:04:17;;;;;;;6.53;2.30;;;;;;;25.36;57.06;97216.66;5091765;28;20215;-27
2023/07/20 00:06:43;;;;;;;4.87;2.13;;;;;;;25.36;56.95;97200.34;5091712;28;20290;-27
2023/07/20 00:09:10;;;;;;;15.23;3.50;;;;;;;25.34;56.74;97204.63;5092020;28;20200;-28
2023/07/20 00:11:40;;;;;;;3.27;2.30;;;;;;;25.34;57.29;97194.34;5091505;28;20231;-28
2023/07/20 00:14:06;;;;;;;3.77;2.10;;;;;;;25.35;57.57;97201.22;5089871;28;20484;-29
2023/07/20 00:16:33;;;;;;;2.57;1.80;;;;;;;25.35;56.92;97198.63;5087940;28;20196;-28
2023/07/20 00:19:00;;;;;;;2.27;1.97;;;;;;;25.34;57.17;97197.75;5095826;28;20227;-27
2023/07/20 00:21:26;;;;;;;3.13;2.00;;;;;;;25.35;56.89;97196.94;5095656;28;20188;-28
2023/07/20 00:23:53;;;;;;;1.97;1.77;;;;;;;25.36;56.76;97195.19;5093370;28;20219;-27
2023/07/20 00:26:20;;;;;;;4.30;2.30;;;;;;;25.36;57.30;97202.91;5095238;28;20219;-28
2023/07/20 00:28:49;;;;;;;12.37;2.40;;;;;;;25.35;56.85;97198.63;5084710;28;20694;-28
2023/07/20 00:31:16;;;;;;;3.07;2.17;;;;;;;25.35;57.03;97199.50;5088376;28;20290;-27
2023/07/20 00:33:42;;;;;;;3.63;2.10;;;;;;;25.35;57.17;97201.22;5090034;28;20220;-29
2023/07/20 00:36:09;;;;;;;2.93;1.90;;;;;;;25.36;56.98;97200.34;5094196;28;20210;-27
2023/07/20 00:38:35;;;;;;;9.53;3.03;;;;;;;25.36;57.04;97197.78;5093795;28;20240;-27
2023/07/20 00:41:03;;;;;;;3.30;2.13;;;;;;;25.36;56.84;97208.06;5094554;28;20253;-28
2023/07/20 00:43:29;;;;;;;2.03;1.80;;;;;;;25.36;57.32;97202.91;5094643;28;20215;-28
2023/07/20 00:45:56;;;;;;;2.33;2.13;;;;;;;25.35;56.94;97203.78;5094828;28;20199;-27
2023/07/20 00:48:23;;;;;;;8.17;2.00;;;;;;;25.34;57.11;97197.75;5094867;28;20199;-30
2023/07/20 00:50:49;;;;;;;2.67;2.13;;;;;;;25.35;57.13;97203.78;5093562;28;20226;-32
2023/07/20 00:53:16;;;;;;;2.53;1.80;;;;;;;25.35;56.95;97201.22;5094587;28;20223;-29
2023/07/20 00:55:44;;;;;;;2.43;1.87;;;;;;;25.35;57.10;97196.94;5093021;28;20203;-29
2023/07/20 00:58:11;;;;;;;2.47;2.00;;;;;;;25.32;57.18;97196.00;5093782;28;20207;-28
2023/07/20 01:00:37;;;;;;;2.53;2.00;;;;;;;25.35;57.21;97196.06;5084696;28;20188;-28
2023/07/20 01:03:04;;;;;;;2.67;1.80;;;;;;;25.33;56.95;97203.75;5092247;28;20223;-27
2023/07/20 01:05:51;;;;;;;2.90;1.90;;;;;;;25.34;57.26;97202.91;5094821;28;20646;-29
2023/07/20 01:08:33;;;;;;;3.60;2.10;;;;;;;25.34;56.93;97207.22;5092722;28;20191;-30
2023/07/20 01:11:13;;;;;;;3.60;1.80;;;;;;;25.33;57.16;97205.47;5090846;28;20634;-26
2023/07/20 01:13:40;;;;;;;2.77;2.10;;;;;;;25.33;57.25;97203.75;5078440;28;20230;-28
2023/07/20 01:16:06;;;;;;;2.33;2.00;;;;;;;25.34;57.37;97209.78;5089214;28;20571;-27
2023/07/20 01:18:33;;;;;;;3.00;1.87;;;;;;;25.33;57.12;97200.31;5094269;28;20282;-28
2023/07/20 01:21:12;;;;;;;47.30;2.67;;;;;;;25.33;56.97;97208.91;5093385;28;20654;-28
2023/07/20 01:23:58;;;;;;;3.43;1.80;;;;;;;25.33;57.02;97202.88;5089932;28;20654;-27
2023/07/20 01:26:43;;;;;;;3.30;1.90;;;;;;;25.32;57.02;97199.47;5089437;28;20199;-27
2023/07/20 01:29:27;;;;;;;2.63;1.80;;;;;;;25.33;57.16;97205.47;5093742;28;20677;-28
2023/07/20 01:31:54;;;;;;;1.90;1.70;;;;;;;25.33;57.10;97195.19;5087272;28;20216;-33
2023/07/20 01:34:21;;;;;;;2.90;1.90;;;;;;;25.33;57.14;97202.88;5093108;28;20298;-27
2023/07/20 01:36:48;;;;;;;2.30;2.10;;;;;;;25.32;57.38;97198.56;5074100;28;20648;-27
2023/07/20 01:39:15;;;;;;;1.97;1.83;;;;;;;25.31;57.37;97200.28;5076160;28;20725;-28
2023/07/20 01:41:42;;;;;;;2.63;1.93;;;;;;;25.32;57.39;97198.56;5092751;28;20623;-28
2023/07/20 01:44:08;;;;;;;2.37;1.70;;;;;;;25.32;57.24;97196.91;5087172;28;20250;-28
2023/07/20 01:46:35;;;;;;;3.23;2.00;;;;;;;25.31;57.32;97202.84;5094309;28;20249;-28
2023/07/20 01:49:02;;;;;;;3.70;1.70;;;;;;;25.31;57.56;97200.28;5093782;28;20282;-27
2023/07/20 01:51:29;;;;;;;2.33;1.80;;;;;;;25.32;57.42;97206.28;5087354;28;20211;-27
2023/07/20 01:53:55;;;;;;;2.13;1.77;;;;;;;25.32;57.30;97211.44;5093628;28;20258;-27
2023/07/20 01:56:22;;;;;;;3.57;1.97;;;;;;;25.32;57.26;97204.63;5088503;28;20249;-28
2023/07/20 01:58:49;;;;;;;2.17;1.97;;;;;;;25.32;57.35;97203.72;5091952;28;20203;-28
2023/07/20 02:01:16;;;;;;;6.07;2.00;;;;;;;25.31;57.19;97208.00;5092679;28;20626;-28
2023/07/20 02:03:42;;;;;;;2.50;1.90;;;;;;;25.32;57.46;97211.44;5092256;28;20222;-28
2023/07/20 02:06:09;;;;;;;3.03;2.10;;;;;;;25.31;57.29;97205.41;5091360;28;20495;-28
2023/07/20 02:08:35;;;;;;;2.83;1.50;;;;;;;25.31;57.46;97213.13;5093374;28;20204;-27
2023/07/20 02:11:02;;;;;;;1.73;1.63;;;;;;;25.31;57.53;97215.69;5092384;28;20261;-27
2023/07/20 02:13:29;;;;;;;2.20;1.90;;;;;;;25.31;57.38;97214.88;5093918;28;20264;-27
2023/07/20 02:15:55;;;;;;;1.57;1.47;;;;;;;25.31;57.13;97209.72;5093233;28;20611;-37
2023/07/20 02:18:22;;;;;;;3.03;2.00;;;;;;;25.30;57.27;97220.84;5092936;28;20253;-28
2023/07/20 02:20:49;;;;;;;2.83;1.90;;;;;;;25.31;57.44;97214.88;5093204;28;20207;-29
2023/07/20 02:23:16;;;;;;;2.07;1.70;;;;;;;25.31;57.46;97217.44;5093145;28;20219;-28
2023/07/20 02:25:43;;;;;;;2.20;2.00;;;;;;;25.30;57.56;97221.72;5090440;28;20210;-28
2023/07/20 02:28:12;;;;;;;2.27;1.80;;;;;;;25.30;57.15;97213.13;5087435;28;20203;-29
2023/07/20 02:30:39;;;;;;;1.90;1.70;;;;;;;25.30;57.61;97213.13;5091893;28;20259;-27
2023/07/20 02:33:07;;;;;;;2.23;1.60;;;;;;;25.30;57.44;97208.84;5088028;28;20215;-29
2023/07/20 02:35:33;;;;;;;1.90;1.80;;;;;;;25.30;57.63;97210.53;5090127;28;20409;-28
2023/07/20 02:38:00;;;;;;;2.07;1.83;;;;;;;25.29;57.41;97222.56;5093032;28;20200;-28
2023/07/20 02:40:27;;;;;;;2.27;1.90;;;;;;;25.31;57.69;97225.16;5083805;28;20252;-28
2023/07/20 02:42:54;;;;;;;2.43;1.80;;;;;;;25.31;57.57;97225.16;5092869;28;20713;-27
2023/07/20 02:45:20;;;;;;;2.17;1.50;;;;;;;25.30;57.63;97220.84;5092229;28;20199;-27
2023/07/20 02:47:47;;;;;;;1.80;1.70;;;;;;;25.31;57.41;97222.59;5090053;28;20753;-28
2023/07/20 02:50:14;;;;;;;2.07;1.87;;;;;;;25.30;57.51;97219.13;5091847;28;20203;-27
2023/07/20 02:52:40;;;;;;;2.37;1.73;;;;;;;25.30;57.67;97219.13;5093111;28;20238;-27
2023/07/20 02:55:07;;;;;;;1.70;1.60;;;;;;;25.30;57.31;97218.25;5092496;28;20203;-28
2023/07/20 02:57:34;;;;;;;1.93;1.73;;;;;;;25.30;57.29;97220.84;5085319;28;20202;-28
2023/07/20 03:00:03;;;;;;;2.10;1.90;;;;;;;25.31;57.21;97231.13;5089346;28;20200;-29
2023/07/20 03:02:30;;;;;;;2.67;2.13;;;;;;;25.32;57.27;97229.44;5088039;28;20211;-27
2023/07/20 03:05:00;;;;;;;2.10;1.90;;;;;;;25.31;57.27;97228.56;5088881;28;20240;-28
2023/07/20 03:07:28;;;;;;;1.87;1.60;;;;;;;25.31;57.21;97231.13;5090333;28;20741;-27
2023/07/20 03:09:55;;;;;;;1.70;1.60;;;;;;;25.30;57.37;97237.16;5091336;28;20203;-27
2023/07/20 03:12:21;;;;;;;1.83;1.73;;;;;;;25.30;57.17;97233.69;5091988;28;20223;-28
2023/07/20 03:14:48;;;;;;;1.80;1.70;;;;;;;25.31;57.70;97235.44;5087219;28;20215;-28
2023/07/20 03:17:15;;;;;;;2.10;1.70;;;;;;;25.32;57.33;97234.59;5091276;28;20219;-28
2023/07/20 03:19:42;;;;;;;1.60;1.50;;;;;;;25.32;57.25;97237.16;5092331;28;20264;-27
2023/07/20 03:22:09;;;;;;;1.73;1.63;;;;;;;25.31;57.41;97240.59;5092341;28;20192;-31
2023/07/20 03:24:35;;;;;;;2.03;1.70;;;;;;;25.29;57.52;97232.84;5092351;28;20196;-28
2023/07/20 03:27:02;;;;;;;2.10;1.80;;;;;;;25.30;57.33;97234.56;5092537;28;20199;-28
2023/07/20 03:29:28;;;;;;;2.00;1.80;;;;;;;25.29;57.46;97232.84;5076129;28;20203;-28
2023/07/20 03:31:55;;;;;;;1.90;1.80;;;;;;;25.31;57.43;97235.44;5079897;28;20273;-27
2023/07/20 03:34:22;;;;;;;1.93;1.73;;;;;;;25.28;57.48;97235.41;5091851;28;20626;-28
2023/07/20 03:36:48;;;;;;;2.13;1.97;;;;;;;25.30;57.57;97237.16;5088502;28;20195;-28
2023/07/20 03:39:15;;;;;;;1.60;1.50;;;;;;;25.30;57.33;97244.84;5084165;28;20225;-27
2023/07/20 03:41:43;;;;;;;2.10;1.60;;;;;;;25.29;57.44;97250.88;5089536;28;20196;-27
2023/07/20 03:44:09;;;;;;;1.70;1.60;;;;;;;25.29;57.27;97252.56;5091231;28;20227;-28
2023/07/20 03:46:36;;;;;;;1.90;1.70;;;;;;;25.29;57.55;97247.41;5089592;28;20197;-27
2023/07/20 03:49:03;;;;;;;1.50;1.40;;;;;;;25.29;57.42;97250.00;5089001;28;20196;-27
2023/07/20 03:51:29;;;;;;;2.77;1.80;;;;;;;25.28;57.27;97250.84;5080502;28;20590;-34
2023/07/20 03:53:56;;;;;;;1.87;1.63;;;;;;;25.29;57.42;97252.56;5082106;28;20220;-27
2023/07/20 03:56:24;;;;;;;2.00;1.47;;;;;;;25.27;57.57;97257.69;5088425;28;20206;-34
2023/07/20 03:58:51;;;;;;;2.33;1.70;;;;;;;25.28;57.23;97261.13;5082484;28;20735;-28
2023/07/20 04:01:17;;;;;;;1.80;1.63;;;;;;;25.26;57.28;97267.97;5084492;28;20667;-28
2023/07/20 04:03:44;;;;;;;1.50;1.40;;;;;;;25.25;57.43;97268.81;5086247;28;20223;-27
2023/07/20 04:06:16;;;;;;;1.50;1.40;;;;;;;25.26;57.23;97271.41;5083638;28;20287;-28
2023/07/20 04:08:44;;;;;;;1.73;1.60;;;;;;;25.26;57.34;97267.97;5086065;28;20201;-28
2023/07/20 04:11:10;;;;;;;1.50;1.40;;;;;;;25.28;57.16;97271.44;5084865;28;20248;-28
2023/07/20 04:13:37;;;;;;;2.30;1.73;;;;;;;25.26;57.54;97263.69;5088610;28;20226;-29
2023/07/20 04:16:04;;;;;;;1.57;1.47;;;;;;;25.29;57.31;97268.00;5089846;28;20221;-28
2023/07/20 04:18:30;;;;;;;2.23;1.60;;;;;;;25.28;57.57;97268.84;5083352;28;20666;-27
2023/07/20 04:20:57;;;;;;;1.80;1.70;;;;;;;25.28;57.16;97276.56;5084091;28;20211;-27
2023/07/20 04:23:24;;;;;;;2.10;1.57;;;;;;;25.25;56.15;97277.38;5079806;28;20703;-28
2023/07/20 04:25:51;;;;;;;1.87;1.63;;;;;;;25.26;56.45;97279.13;5091967;28;20241;-27
2023/07/20 04:28:18;;;;;;;3.00;1.70;;;;;;;25.25;57.01;97289.41;5087341;28;20227;-28
2023/07/20 04:30:44;;;;;;;3.80;1.80;;;;;;;25.24;57.22;97285.94;5092070;28;20256;-27
2023/07/20 04:33:11;;;;;;;1.73;1.50;;;;;;;25.24;57.09;97290.22;5090542;28;20220;-36
2023/07/20 04:35:48;;;;;;;2.87;1.80;;;;;;;25.23;56.78;97291.97;5083669;28;20207;-27
2023/07/20 04:38:17;;;;;;;1.90;1.80;;;;;;;25.21;56.08;97293.63;5079735;28;20267;-27
2023/07/20 04:40:48;;;;;;;3.47;2.40;;;;;;;25.19;53.92;97286.75;5092010;28;20267;-30
2023/07/20 04:43:15;;;;;;;3.60;2.23;;;;;;;25.19;53.40;97287.59;5089013;28;20280;-28
2023/07/20 04:45:42;;;;;;;2.47;2.27;;;;;;;25.19;52.98;97291.91;5090233;28;20204;-28
2023/07/20 04:48:13;;;;;;;4.47;2.20;;;;;;;25.17;53.08;97290.16;5074882;28;20615;-28
2023/07/20 04:50:44;;;;;;;3.53;2.47;;;;;;;25.17;52.56;97291.00;5091334;28;20195;-27
2023/07/20 04:53:14;;;;;;;5.83;2.03;;;;;;;25.11;52.90;97284.09;5088794;28;20284;-29
2023/07/20 04:55:50;;;;;;;4.20;2.47;;;;;;;25.16;53.01;97302.16;5094834;28;20676;-29
2023/07/20 04:58:21;;;;;;;3.63;2.20;;;;;;;25.13;53.19;97301.25;5086105;28;20223;-28
2023/07/20 05:00:48;;;;;;;3.13;2.40;;;;;;;25.13;52.63;97303.84;5087594;28;20203;-27
2023/07/20 05:03:15;;;;;;;3.33;2.07;;;;;;;25.13;52.67;97307.25;5085428;28;20325;-28
2023/07/20 05:05:42;;;;;;;2.50;2.30;;;;;;;25.11;52.38;97308.09;5089757;28;20204;-28
2023/07/20 05:08:09;;;;;;;5.90;2.37;;;;;;;24.98;52.32;97287.34;5090328;28;20415;-28
2023/07/20 05:10:35;;;;;;;3.40;2.70;;;;;;;25.11;52.21;97320.94;5091986;28;20200;-29
2023/07/20 05:13:02;;;;;;;4.70;2.70;;;;;;;25.11;52.46;97314.97;5092429;28;20268;-27
2023/07/20 05:15:28;;;;;;;2.83;2.57;;;;;;;25.06;52.33;97307.19;5090373;28;20582;-28
2023/07/20 05:17:55;;;;;;;4.77;2.40;;;;;;;25.09;52.79;97320.09;5095007;28;20230;-27
2023/07/20 05:20:22;;;;;;;9.77;2.27;;;;;;;25.06;52.69;97312.34;5094439;28;20935;-27
2023/07/20 05:22:48;;;;;;;2.60;2.30;;;;;;;25.10;53.20;97321.81;5088226;28;20219;-27
2023/07/20 05:25:18;;;;;;;4.70;2.50;;;;;;;25.10;52.94;97326.06;5093080;28;20210;-27
2023/07/20 05:27:45;;;;;;;2.80;2.47;;;;;;;25.11;53.15;97325.25;5093024;28;20625;-27
2023/07/20 05:30:12;;;;;;;3.20;2.30;;;;;;;25.10;53.14;97318.34;5094106;28;20638;-28
2023/07/20 05:32:38;;;;;;;6.87;2.30;;;;;;;25.10;53.57;97319.22;5091604;28;20231;-28
2023/07/20 05:35:06;;;;;;;2.93;2.30;;;;;;;25.10;54.16;97314.09;5094312;28;20283;-28
2023/07/20 05:37:32;;;;;;;2.87;2.23;;;;;;;25.11;53.89;97317.53;5087076;28;20668;-25
2023/07/20 05:39:59;;;;;;;3.57;2.47;;;;;;;25.11;53.89;97320.94;5094268;28;20203;-27
2023/07/20 05:42:25;;;;;;;2.70;2.27;;;;;;;25.11;53.41;97332.97;5090639;28;20200;-28
2023/07/20 05:44:53;;;;;;;4.40;2.50;;;;;;;25.11;53.49;97326.09;5092125;28;20223;-27
2023/07/20 05:47:20;;;;;;;2.47;2.13;;;;;;;25.11;53.96;97323.53;5093466;28;20715;-28
2023/07/20 05:49:47;;;;;;;3.90;2.70;;;;;;;25.13;53.70;97327.84;5090701;28;20206;-29
2023/07/20 05:52:13;;;;;;;4.30;2.70;;;;;;;25.13;53.78;97330.41;5093062;28;20219;-28
2023/07/20 05:54:40;;;;;;;3.40;2.33;;;;;;;25.13;53.85;97334.69;5080322;28;20199;-28
2023/07/20 05:57:07;;;;;;;3.03;2.37;;;;;;;25.13;53.86;97326.97;5089292;28;20609;-27
2023/07/20 05:59:34;;;;;;;3.80;2.33;;;;;;;25.13;53.36;97319.28;5092306;28;20203;-27
2023/07/20 06:02:00;;;;;;;4.50;2.27;;;;;;;25.14;53.52;97330.44;5089110;28;20204;-27
2023/07/20 06:04:27;;;;;;;2.93;2.60;;;;;;;25.14;53.14;97325.28;5087488;28;20632;-28
2023/07/20 06:06:53;;;;;;;2.37;2.17;;;;;;;25.14;53.41;97325.28;5087999;28;20256;-28
2023/07/20 06:09:20;;;;;;;4.13;2.57;;;;;;;25.14;53.33;97335.56;5091488;28;20614;-27
2023/07/20 06:11:47;;;;;;;2.60;2.20;;;;;;;25.14;53.66;97335.56;5093104;28;20218;-27
2023/07/20 06:14:13;;;;;;;2.37;2.00;;;;;;;25.14;53.58;97344.13;5091276;28;20224;-28
2023/07/20 06:16:40;;;;;;;2.57;2.13;;;;;;;25.14;54.13;97335.56;5079308;28;20203;-30
2023/07/20 06:19:07;;;;;;;2.77;2.23;;;;;;;25.15;53.96;97339.84;5086160;28;20310;-27
2023/07/20 06:21:33;;;;;;;3.00;2.07;;;;;;;25.14;54.17;97341.56;5092598;28;20195;-28
2023/07/20 06:24:00;;;;;;;1.97;1.83;;;;;;;25.14;54.34;97341.56;5088279;28;20227;-27
2023/07/20 06:26:28;;;;;;;2.93;2.07;;;;;;;25.16;54.15;97345.88;5084693;28;20196;-28
2023/07/20 06:28:55;;;;;;;2.30;2.10;;;;;;;25.16;54.14;97343.31;5087951;28;20204;-26
2023/07/20 06:31:21;;;;;;;2.90;2.13;;;;;;;25.16;54.17;97346.72;5086129;28;20207;-28
2023/07/20 06:33:48;;;;;;;2.20;2.00;;;;;;;25.16;54.45;97356.16;5088699;28;20810;-27
2023/07/20 06:36:17;;;;;;;2.93;2.17;;;;;;;25.17;54.34;97351.88;5088310;28;20204;-29
2023/07/20 06:38:44;;;;;;;2.13;1.90;;;;;;;25.17;54.03;97344.16;5084466;28;20203;-27
2023/07/20 06:41:30;;;;;;;2.30;2.10;;;;;;;25.17;54.35;97344.16;5088665;28;20204;-36
2023/07/20 06:44:00;;;;;;;2.20;2.00;;;;;;;25.17;54.31;97344.16;5087531;28;20224;-29
2023/07/20 06:46:26;;;;;;;2.10;1.90;;;;;;;25.17;54.28;97343.31;5092987;28;20204;-28
2023/07/20 06:48:54;;;;;;;2.33;2.13;;;;;;;25.17;54.04;97341.59;5093305;28;20200;-27
2023/07/20 06:51:24;;;;;;;2.53;2.33;;;;;;;25.17;53.90;97336.44;5092743;28;20207;-27
2023/07/20 06:53:51;;;;;;;2.27;1.77;;;;;;;25.19;54.07;97344.19;5086975;28;20250;-30
2023/07/20 06:56:18;;;;;;;2.30;2.03;;;;;;;25.20;54.43;97345.06;5093078;28;20195;-27
2023/07/20 06:58:47;;;;;;;2.40;2.00;;;;;;;25.19;54.11;97330.47;5087635;28;20200;-27
2023/07/20 07:01:14;;;;;;;2.50;2.30;;;;;;;25.20;53.86;97332.19;5092877;28;20269;-33
2023/07/20 07:03:41;;;;;;;2.43;1.93;;;;;;;25.21;54.10;97334.78;5092488;28;20269;-27
2023/07/20 07:06:08;;;;;;;2.10;1.90;;;;;;;25.21;54.22;97328.78;5093417;28;20195;-29
2023/07/20 07:08:35;;;;;;;2.13;2.03;;;;;;;25.20;53.90;97327.94;5092842;28;20587;-27
2023/07/20 07:11:02;;;;;;;2.20;1.83;;;;;;;25.21;54.21;97327.06;5092673;28;20221;-28
2023/07/20 07:13:30;;;;;;;2.90;1.80;;;;;;;25.23;54.32;97332.22;5092534;28;20227;-28
2023/07/20 07:15:57;;;;;;;2.83;1.93;;;;;;;25.23;54.09;97334.81;5087043;28;20659;-27
2023/07/20 07:18:24;;;;;;;1.97;1.87;;;;;;;25.22;53.96;97340.81;5090389;28;20580;-28
2023/07/20 07:20:52;;;;;;;2.17;1.97;;;;;;;25.22;54.07;97349.38;5092575;28;20215;-29
2023/07/20 07:23:18;;;;;;;2.23;1.83;;;;;;;25.22;54.04;97339.06;5092279;28;20222;-27
2023/07/20 07:25:45;;;;;;;2.10;1.90;;;;;;;25.22;54.08;97338.25;5092606;28;20286;-28
2023/07/20 07:28:12;;;;;;;2.17;1.97;;;;;;;25.22;54.08;97340.81;5092737;28;20209;-27
2023/07/20 07:30:39;;;;;;;2.53;1.77;;;;;;;25.22;54.28;97343.38;5092341;28;20207;-30
2023/07/20 07:33:05;;;;;;;2.17;1.73;;;;;;;25.23;54.21;97345.97;5084480;28;20238;-28
2023/07/20 07:35:32;;;;;;;2.00;1.70;;;;;;;25.23;54.07;97355.38;5092026;28;20205;-28
2023/07/20 07:37:59;;;;;;;2.33;2.13;;;;;;;25.24;53.95;97354.53;5083099;28;20196;-28
2023/07/20 07:40:46;;;;;;;2.07;1.90;;;;;;;25.23;53.99;97351.13;5085429;28;20628;-27
2023/07/20 07:43:15;;;;;;;1.97;1.83;;;;;;;25.25;54.26;97343.41;5086377;28;20212;-27
2023/07/20 07:45:42;;;;;;;1.60;1.50;;;;;;;25.24;54.22;97342.53;5084096;28;20204;-27
2023/07/20 07:48:11;;;;;;;2.07;1.87;;;;;;;25.25;53.86;97340.84;5091575;28;20256;-28
2023/07/20 07:50:38;;;;;;;1.93;1.80;;;;;;;25.27;54.16;97345.16;5091750;28;20195;-28
2023/07/20 07:53:05;;;;;;;1.70;1.60;;;;;;;25.26;53.91;97340.00;5092019;28;20281;-28
2023/07/20 07:55:31;;;;;;;1.70;1.60;;;;;;;25.26;54.09;97350.28;5087704;28;20204;-28
2023/07/20 07:57:58;;;;;;;1.87;1.77;;;;;;;25.25;53.97;97349.41;5091422;28;20200;-28
2023/07/20 08:00:24;;;;;;;1.70;1.60;;;;;;;25.25;54.06;97348.56;5091708;28;20199;-27
2023/07/20 08:02:51;;;;;;;2.00;1.90;;;;;;;25.25;54.38;97348.56;5084095;28;20212;-27
2023/07/20 08:05:18;;;;;;;2.33;2.00;;;;;;;25.26;54.13;97347.69;5088833;28;20713;-28
2023/07/20 08:07:45;;;;;;;1.53;1.43;;;;;;;25.25;54.01;97349.41;5090595;28;20234;-27
2023/07/20 08:10:11;;;;;;;2.30;1.80;;;;;;;25.25;54.21;97346.00;5091487;28;20260;-27
2023/07/20 08:12:38;;;;;;;1.57;1.47;;;;;;;25.26;54.04;97350.28;5085972;28;20277;-28
2023/07/20 08:15:05;;;;;;;1.80;1.70;;;;;;;25.25;54.06;97354.53;5088891;28;20195;-28
2023/07/20 08:17:32;;;;;;;1.70;1.60;;;;;;;25.26;54.19;97356.28;5090419;28;20207;-28
2023/07/20 08:19:59;;;;;;;1.87;1.77;;;;;;;25.26;53.89;97348.56;5082788;28;20238;-27
2023/07/20 08:22:25;;;;;;;1.87;1.67;;;;;;;25.26;54.15;97338.28;5086816;28;20320;-27
2023/07/20 08:24:52;;;;;;;1.70;1.60;;;;;;;25.28;54.08;97353.75;5091795;28;20203;-28
2023/07/20 08:27:19;;;;;;;1.77;1.67;;;;;;;25.29;54.22;97352.88;5091715;28;20253;-29
2023/07/20 08:29:45;;;;;;;1.70;1.60;;;;;;;25.27;54.18;97350.28;5082556;28;20211;-28
2023/07/20 08:32:14;;;;;;;2.10;1.50;;;;;;;25.28;54.21;97353.75;5091850;28;20625;-28
2023/07/20 08:34:41;;;;;;;1.60;1.50;;;;;;;25.29;54.08;97352.88;5089525;28;20227;-27
2023/07/20 08:37:10;;;;;;;1.60;1.50;;;;;;;25.28;54.12;97351.16;5088390;28;20449;-28
2023/07/20 08:39:36;;;;;;;1.70;1.60;;;;;;;25.28;54.07;97346.03;5095360;28;20207;-27
2023/07/20 08:42:06;;;;;;;1.90;1.70;;;;;;;25.28;54.33;97346.03;5094150;28;20590;-28
2023/07/20 08:44:33;;;;;;;1.57;1.47;;;;;;;25.27;54.30;97336.56;5088458;28;20219;-28
2023/07/20 08:47:03;;;;;;;1.53;1.43;;;;;;;25.26;54.30;97333.16;5090011;28;20585;-27
2023/07/20 08:49:31;;;;;;;2.33;1.70;;;;;;;25.27;54.14;97334.84;5075768;28;20234;-29
2023/07/20 08:51:58;;;;;;;1.80;1.70;;;;;;;25.27;53.95;97337.44;5091040;28;20249;-27
2023/07/20 08:54:29;;;;;;;1.50;1.40;;;;;;;25.27;54.23;97337.44;5089923;28;20313;-28
2023/07/20 08:56:56;;;;;;;1.60;1.50;;;;;;;25.28;54.05;97335.72;5094150;28;20196;-28
2023/07/20 08:59:23;;;;;;;1.87;1.77;;;;;;;25.26;53.91;97329.69;5095270;28;20560;-27
2023/07/20 09:01:51;;;;;;;1.50;1.40;;;;;;;25.27;54.16;97334.84;5074532;28;20267;-27
2023/07/20 09:04:18;;;;;;;2.30;1.60;;;;;;;25.28;54.30;97328.88;5076685;28;20242;-33
2023/07/20 09:06:45;;;;;;;1.70;1.60;;;;;;;25.28;54.33;97331.44;5088565;28;20244;-28
2023/07/20 09:09:11;;;;;;;1.93;1.40;;;;;;;25.29;54.04;97334.88;5095189;28;20219;-28
2023/07/20 09:11:38;;;;;;;1.60;1.50;;;;;;;25.29;54.25;97333.19;5092568;28;20682;-27
2023/07/20 09:14:09;;;;;;;1.40;1.30;;;;;;;25.29;53.74;97328.03;5083541;28;20242;-28
2023/07/20 09:16:49;;;;;;;1.43;1.33;;;;;;;25.30;53.84;97339.16;5089493;28;20200;-27
2023/07/20 09:19:16;;;;;;;1.50;1.40;;;;;;;25.30;53.97;97328.88;5093035;28;20676;-27
2023/07/20 09:21:49;;;;;;;1.53;1.43;;;;;;;25.30;54.02;97331.44;5093718;28;20195;-28
2023/07/20 09:24:18;;;;;;;2.20;1.80;;;;;;;25.30;54.33;97337.47;5087538;28;20216;-28
2023/07/20 09:26:45;;;;;;;1.50;1.40;;;;;;;25.30;54.19;97322.03;5086321;28;20191;-28
2023/07/20 09:29:14;;;;;;;1.50;1.40;;;;;;;25.30;54.05;97329.75;5083838;28;20200;-28
2023/07/20 09:31:42;;;;;;;1.40;1.30;;;;;;;25.31;53.86;97338.34;5085807;28;20195;-28
2023/07/20 09:34:09;;;;;;;1.40;1.30;;;;;;;25.31;54.09;97322.91;5091873;28;20302;-27
2023/07/20 09:36:36;;;;;;;1.60;1.50;;;;;;;25.31;54.33;97330.63;5087231;28;20226;-27
2023/07/20 09:39:05;;;;;;;1.47;1.37;;;;;;;25.32;54.27;97333.25;5091188;28;20655;-27
2023/07/20 09:41:51;;;;;;;1.83;1.73;;;;;;;25.31;53.94;97336.59;5091903;28;20200;-28
2023/07/20 09:44:37;;;;;;;1.60;1.43;;;;;;;25.32;54.43;97333.25;5075146;28;20201;-28
2023/07/20 09:47:07;;;;;;;1.70;1.60;;;;;;;25.32;54.11;97332.34;5087656;28;20682;-28
2023/07/20 09:49:39;;;;;;;1.80;1.70;;;;;;;25.32;53.77;97329.78;5093306;28;20317;-28
2023/07/20 09:52:09;;;;;;;1.57;1.47;;;;;;;25.32;54.08;97335.81;5085553;28;20223;-29
2023/07/20 09:54:38;;;;;;;1.40;1.20;;;;;;;25.32;54.11;97324.63;5087651;28;20239;-27
2023/07/20 09:57:07;;;;;;;1.33;1.23;;;;;;;25.32;53.80;97325.53;5087143;28;20204;-27
2023/07/20 09:59:34;;;;;;;1.47;1.37;;;;;;;25.33;53.88;97324.66;5086633;28;20577;-27
2023/07/20 10:02:01;;;;;;;1.53;1.43;;;;;;;25.30;54.04;97316.88;5092227;28;20735;-28
2023/07/20 10:04:28;;;;;;;1.40;1.30;;;;;;;25.33;54.01;97311.81;5092160;28;20747;-27
2023/07/20 10:06:55;;;;;;;1.50;1.40;;;;;;;25.33;54.17;97313.50;5087095;28;20235;-27
2023/07/20 10:09:22;;;;;;;1.30;1.20;;;;;;;25.33;54.01;97311.81;5064450;28;20230;-28
2023/07/20 10:11:52;;;;;;;1.53;1.43;;;;;;;25.31;53.97;97312.63;5072344;28;20246;-28
2023/07/20 10:14:40;;;;;;;1.57;1.47;;;;;;;25.34;53.81;97315.25;5064640;28;20307;-28
2023/07/20 10:17:07;;;;;;;1.57;1.47;;;;;;;25.33;53.85;97314.38;5087444;28;20262;-28
2023/07/20 10:19:39;;;;;;;1.50;1.40;;;;;;;25.33;53.91;97314.38;5090409;28;20191;-28
2023/07/20 10:22:19;;;;;;;1.50;1.40;;;;;;;25.34;54.17;97316.09;5082757;28;20192;-27
2023/07/20 10:24:47;;;;;;;1.40;1.30;;;;;;;25.34;53.83;97310.13;5090795;28;20195;-27
2023/07/20 10:27:14;;;;;;;1.37;1.27;;;;;;;25.34;53.84;97313.53;5088707;28;20199;-28
2023/07/20 10:29:41;;;;;;;1.30;1.20;;;;;;;25.34;54.32;97307.53;5085019;28;20603;-28
2023/07/20 10:32:08;;;;;;;1.50;1.40;;;;;;;25.33;54.09;97303.22;5089906;28;20195;-28
2023/07/20 10:34:34;;;;;;;1.53;1.43;;;;;;;25.31;54.16;97300.59;5083488;28;20223;-28
2023/07/20 10:37:01;;;;;;;1.37;1.27;;;;;;;25.34;53.81;97300.66;5085702;28;20191;-27
2023/07/20 10:39:30;;;;;;;1.50;1.40;;;;;;;25.34;54.00;97297.25;5092741;28;20207;-28
2023/07/20 10:42:07;;;;;;;1.50;1.40;;;;;;;25.34;54.10;97285.22;5091493;28;20203;-29
2023/07/20 10:44:33;;;;;;;1.60;1.50;;;;;;;25.34;53.84;97294.69;5093329;28;20268;-27
2023/07/20 10:47:08;;;;;;;1.50;1.40;;;;;;;25.34;54.16;97287.81;5087663;28;20199;-27
2023/07/20 10:49:35;;;;;;;2.00;1.50;;;;;;;25.35;53.82;97296.38;5088995;28;20195;-27
2023/07/20 10:52:06;;;;;;;1.50;1.40;;;;;;;25.33;54.09;97292.94;5092562;28;20196;-27
2023/07/20 10:54:34;;;;;;;1.80;1.30;;;;;;;25.35;53.81;97291.25;5093014;28;20251;-28
2023/07/20 10:57:29;;;;;;;5.00;1.60;;;;;;;25.35;54.12;97293.81;5088937;28;20199;-28
2023/07/20 11:00:12;;;;;;;1.40;1.30;;;;;;;25.34;53.97;97284.38;5089338;28;20187;-30
2023/07/20 11:02:48;;;;;;;1.10;1.10;;;;;;;25.35;53.93;97275.81;5090565;28;20268;-28
2023/07/20 11:05:32;;;;;;;1.10;1.10;;;;;;;25.35;54.16;97289.56;5092914;28;20195;-27
2023/07/20 11:07:59;;;;;;;1.27;1.20;;;;;;;25.35;54.13;97280.94;5078371;28;20199;-27
2023/07/20 11:10:25;;;;;;;1.40;1.30;;;;;;;25.36;54.13;97283.53;5091147;28;20223;-28
2023/07/20 11:13:18;;;;;;;1.83;1.40;;;;;;;25.35;54.28;97268.97;5092726;28;20254;-28
2023/07/20 11:15:57;;;;;;;1.43;1.33;;;;;;;25.36;53.77;97280.09;5081393;28;20195;-28
2023/07/20 11:18:27;;;;;;;1.40;1.30;;;;;;;25.36;53.99;97272.38;5086376;28;20196;-27
2023/07/20 11:20:53;;;;;;;1.00;1.00;;;;;;;25.35;54.12;97273.25;5092637;28;20200;-24
2023/07/20 11:23:20;;;;;;;1.13;1.13;;;;;;;25.35;53.99;97265.53;5092665;28;20212;-28
2023/07/20 11:25:47;;;;;;;1.20;1.10;;;;;;;25.35;53.81;97268.97;5081724;28;20203;-29
2023/07/20 11:28:14;;;;;;;1.40;1.30;;;;;;;25.35;53.88;97271.53;5086319;28;20195;-27
2023/07/20 11:30:40;;;;;;;1.30;1.20;;;;;;;25.35;53.77;97260.38;5091971;28;20204;-28
2023/07/20 11:33:10;;;;;;;1.00;1.00;;;;;;;25.36;54.14;97259.50;5085137;28;20317;-27
2023/07/20 11:35:43;;;;;;;1.20;1.10;;;;;;;25.34;54.18;97253.50;5091736;28;20616;-26
2023/07/20 11:38:09;;;;;;;1.40;1.30;;;;;;;25.35;54.32;97260.38;5091484;28;20633;-27
2023/07/20 11:40:36;;;;;;;1.30;1.20;;;;;;;25.35;54.13;97253.53;5074055;28;20195;-27